ENFB/FBU METAR and TAF weather

Enter ICAO airport designator
Station Type Date Time Source
ENFB METAR 2021/03/06 01:20 UTC NOAA

ENFB 060120Z AUTO 27026KT 9999NDV BKN022/// BKN042/// 05/02 Q1026 W///S5


Station Type Date Time Source
ENFB Decoded METAR 2021/03/06 01:20 UTC NOAA

Oslo / Fornebu, Norway (ENFB) 59-54N 010-38E 17M
Mar 05, 2021 - 08:20 PM EST / 2021.03.06 0120 UTC
Wind: from the W (270 degrees) at 30 MPH (26 KT):0
Sky conditions: mostly cloudy
Temperature: 41 F (5 C)
Dew Point: 35 F (2 C)
Relative Humidity: 80%
Pressure (altimeter): 30.30 in. Hg (1026 hPa)
ob: ENFB 060120Z AUTO 27026KT 9999NDV BKN022/// BKN042/// 05/02 Q1026 W///S5
cycle: 1

Station Type Date Time Source
ENFB TAF UTC NOAA

Error!

Example: see airport list